Oranmore, Ireland
Current Conditions -  °F | °C
As of 3:30 PM on Monday 22 Dec 2014 (Local Time) from EINN Reporting Station
Drizzle Drizzle  
Wind Chill: 52°   Ceiling: 500
Heat Index: 52°   Visibility: 1.8mi
Dew Point: 52°   Wind: 25mph
Humidity: 100%   Direction: 220°SW
Pressure: 29.88"   Gusts: 37mph
Location:  53.27°N, 8.93°W
Report Text: EINN 221530Z 22022G32KT 3000 -DZ BKN005 BKN007 BKN010 11/11 Q1012 TEMPO 2000 BKN004
Loading
Personal Weather Stations






























Interactive Weather Map New forecast layout! Learn more

10-Day Weather Forecast

Advertisements
Track Severe Weather on mobile